Latest Weather Observations for Truscott

IDD60801

Issued at 11:35 pm CST Thursday 30 October 2014 (issued every 30 minutes, with the page automatically refreshed every 10 minutes)

About weather observations | Map of weather stations | Latest weather observations for NT | Other Formats
Station Details ID: 001020 Name: TRUSCOTT Lat: -14.09 Lon: 126.39 Height: 51.0 m
Data from the previous 72 hours. | See also: Recent months at Truscott
Date/Time
CST
Temp
°C
App
Temp
°C
Dew
Point
Rel
Hum
%
Delta-T
°C
Wind Press
QNH
hPa
Press
MSL
hPa
Rain
since 9 am
mm
Dir
 
Spd
km/h
Gust
km/h
Spd
kts
Gust
kts
30/11:30pm 27.9 33.4 25.3 86 1.8 WNW 6 7 3 4 1009.7 - 0.0
30/11:00pm 28.2 33.6 25.4 85 2.0 WNW 7 11 4 6 1009.8 - 0.0
30/10:30pm 28.2 33.2 25.4 85 2.0 WNW 9 15 5 8 1009.6 1009.0 0.0
30/10:00pm 28.5 33.2 25.5 84 2.1 W 11 15 6 8 1009.3 - 0.0
30/09:30pm 28.5 33.2 25.5 84 2.1 W 11 15 6 8 1009.1 - 0.0
30/09:00pm 28.7 33.3 24.7 79 2.8 WSW 9 13 5 7 1008.7 - 0.0
30/08:30pm 28.9 33.3 25.1 80 2.7 W 11 15 6 8 1008.3 - 0.0
30/08:00pm 29.2 34.1 25.2 79 2.8 W 9 15 5 8 1008.1 - 0.0
30/07:30pm 29.5 34.1 25.3 78 3.0 W 11 15 6 8 1007.8 1007.2 0.0
30/07:00pm 30.1 34.6 25.2 75 3.5 W 11 15 6 8 1007.8 - 0.0
30/06:30pm 30.3 33.4 24.2 70 4.3 NW 15 20 8 11 1007.3 - 0.0
30/06:00pm 31.1 35.1 25.0 70 4.3 NNW 13 20 7 11 1006.9 - 0.0
30/05:30pm 31.3 34.7 24.7 68 4.6 NNW 15 20 8 11 1006.7 - 0.0
30/05:00pm 32.4 35.0 23.3 58 6.3 WNW 15 20 8 11 1006.7 - 0.0
30/04:30pm 32.4 35.0 23.9 61 5.9 NW 17 26 9 14 1006.7 1006.1 0.0
30/04:00pm 32.6 35.3 24.1 61 5.9 NNW 17 22 9 12 1006.9 - 0.0
30/03:30pm 32.9 35.1 23.2 56 6.7 NW 17 24 9 13 1007.1 - 0.0
30/03:00pm 32.9 34.9 23.0 56 6.8 NW 17 26 9 14 1007.5 - 0.0
30/02:30pm 31.8 33.3 23.1 60 6.0 NNW 20 30 11 16 1008.0 - 0.0
30/02:00pm 31.8 33.5 23.1 60 6.0 NW 19 30 10 16 1008.4 - 0.0
30/01:30pm 32.5 35.4 24.5 62 5.6 NNW 17 22 9 12 1008.8 1008.2 0.0
30/01:00pm 32.0 33.9 23.5 60 5.9 NNW 19 26 10 14 1009.4 - 0.0
30/12:30pm 32.7 35.3 23.9 60 6.1 NNW 17 26 9 14 1009.8 - 0.0
30/12:00pm 31.9 34.7 23.7 62 5.7 N 15 26 8 14 1010.0 - 0.0
30/11:30am 32.1 35.3 24.4 63 5.4 N 15 24 8 13 1010.3 - 0.0
30/11:00am 32.0 35.5 24.8 65 5.1 N 15 20 8 11 1010.5 - 0.0
30/10:30am 31.3 34.9 24.4 66 4.8 N 13 19 7 10 1010.8 1010.2 0.0
30/10:00am 31.6 36.0 25.0 68 4.7 NNW 11 15 6 8 1010.9 - 0.0
30/09:30am 30.9 36.0 25.0 71 4.2 N 7 15 4 8 1011.0 - 0.0
30/09:00am 30.1 34.7 25.4 76 3.3 N 11 13 6 7 1011.1 - 0.0
30/08:30am 29.6 35.1 25.6 79 2.8 NNE 7 11 4 6 1010.8 - 0.0
30/08:00am 28.6 35.8 26.2 87 1.7 CALM 0 0 0 0 1010.3 - 0.0
30/07:30am 27.5 34.1 26.4 94 0.8 WSW 4 7 2 4 1009.7 1009.1 0.0
30/07:00am 26.1 32.7 25.2 95 0.6 CALM 0 0 0 0 1009.4 - 0.0
30/06:30am 26.8 32.5 25.6 93 0.8 SW 6 7 3 4 1009.0 - 0.0
30/06:00am 27.1 32.7 25.7 92 1.0 WSW 7 11 4 6 1008.9 - 0.0
30/05:30am 27.3 32.0 25.5 90 1.3 WSW 11 17 6 9 1008.6 - 0.0
30/05:00am 27.3 32.5 25.7 91 1.1 WSW 9 13 5 7 1008.5 - 0.0
30/04:30am 27.2 32.1 25.8 92 1.0 WSW 11 17 6 9 1008.3 1007.7 0.0
30/04:00am 27.3 32.6 25.9 92 1.0 WSW 9 13 5 7 1008.2 - 0.0
30/03:30am 27.4 32.3 25.8 91 1.1 WSW 11 13 6 7 1008.4 - 0.0
30/03:00am 27.4 33.0 25.8 91 1.1 WSW 7 11 4 6 1008.5 - 0.0
30/02:30am 27.4 32.7 25.8 91 1.1 W 9 11 5 6 1008.8 - 0.0
30/02:00am 27.5 33.1 25.7 90 1.3 W 7 11 4 6 1009.0 - 0.0
30/01:30am 27.6 32.0 25.6 89 1.4 W 13 15 7 8 1009.3 1008.7 0.0
30/01:00am 27.6 32.2 25.4 88 1.5 W 11 17 6 9 1009.6 - 0.0
30/12:30am 27.6 32.5 25.2 87 1.7 W 9 13 5 7 1009.9 - 0.0
30/12:00am 27.6 32.1 24.6 84 2.1 W 9 11 5 6 1010.3 - 0.0
 
Date/Time
CST
Temp
°C
App
Temp
°C
Dew
Point
Rel
Hum
%
Delta-T
°C
Wind Press
QNH
hPa
Press
MSL
hPa
Rain
since 9 am
mm
Dir
 
Spd
km/h
Gust
km/h
Spd
kts
Gust
kts
29/11:30pm 27.7 32.3 24.1 81 2.5 W 7 11 4 6 1010.7 - 0.0
29/11:00pm 28.0 32.5 24.0 79 2.8 WSW 7 9 4 5 1010.9 - 0.0
29/10:30pm 28.0 32.9 24.6 82 2.4 WSW 7 11 4 6 1011.0 1010.4 0.0
29/10:00pm 28.4 33.2 24.2 78 2.9 W 6 9 3 5 1010.9 - 0.0
29/09:30pm 28.7 32.3 23.1 71 3.8 W 9 13 5 7 1010.8 - 0.0
29/09:00pm 28.7 33.1 23.8 75 3.4 WNW 7 11 4 6 1010.7 - 0.0
29/08:30pm 29.2 32.8 22.4 66 4.6 WNW 7 11 4 6 1010.6 - 0.0
29/08:00pm 28.8 33.4 24.1 76 3.3 NW 7 9 4 5 1010.4 - 0.0
29/07:30pm 29.0 33.5 24.6 77 3.1 NW 9 13 5 7 1010.0 1009.4 0.0
29/07:00pm 29.3 33.8 24.6 76 3.3 NW 9 15 5 8 1010.0 - 0.0
29/06:30pm 30.0 32.6 21.9 62 5.5 NNW 11 15 6 8 1009.9 - 0.0
29/06:00pm 30.4 31.3 20.0 53 6.9 NNW 15 24 8 13 1009.3 - 0.0
29/05:30pm 30.3 31.7 21.9 60 5.7 NNW 17 26 9 14 1008.9 - 0.0
29/05:00pm 31.7 33.5 23.2 60 5.9 NNW 19 28 10 15 1008.8 - 0.0
29/04:30pm 32.0 34.7 24.1 63 5.5 NNW 17 24 9 13 1008.6 1008.0 0.0
29/04:00pm 32.9 34.7 23.2 56 6.7 NNW 19 26 10 14 1008.6 - 0.0
29/03:30pm 33.3 35.3 23.6 56 6.8 NNW 19 26 10 14 1008.9 - 0.0
29/03:00pm 33.8 34.3 20.9 46 8.7 NNW 19 26 10 14 1009.1 - 0.0
29/02:30pm 34.0 35.2 21.4 47 8.5 NNW 17 24 9 13 1009.5 - 0.0
29/02:00pm 34.9 36.1 21.5 45 9.1 NNW 17 24 9 13 1009.9 - 0.0
29/01:30pm 34.2 35.5 21.6 47 8.6 NNW 17 26 9 14 1010.3 1009.7 0.0
29/01:00pm 34.2 36.4 22.6 50 8.0 WNW 15 20 8 11 1010.8 - 0.0
29/12:30pm 34.0 37.2 23.7 55 7.2 W 13 20 7 11 1011.1 - 0.0
29/12:00pm 33.5 35.4 22.0 51 7.9 W 15 22 8 12 1011.6 - 0.0
29/11:30am 33.9 34.1 17.6 38 10.5 WNW 13 20 7 11 1011.9 - 0.0
29/11:00am 33.1 33.7 18.5 42 9.5 W 13 19 7 10 1012.3 - 0.0
29/10:30am 32.1 34.3 21.9 54 6.9 W 13 17 7 9 1012.6 1012.0 0.0
29/10:00am 31.7 35.5 24.0 63 5.4 WNW 11 17 6 9 1012.8 - 0.0
29/09:30am 31.2 35.1 23.6 64 5.3 NNW 9 13 5 7 1012.9 - 0.0
29/09:00am 30.2 36.1 25.3 75 3.5 NW 4 11 2 6 1012.7 - 0.0
29/08:33am 29.2 35.8 26.4 85 2.0 N 4 7 2 4 1012.5 - 0.0
29/08:30am 29.0 35.5 26.2 85 2.0 N 4 7 2 4 1012.5 - 0.0
29/08:00am 27.9 35.2 26.8 94 0.8 NW 2 7 1 4 1012.3 - 0.0
29/07:34am 27.2 35.0 27.0 99 0.1 CALM 0 0 0 0 1012.0 - 0.0
29/07:30am 27.0 34.6 26.7 98 0.2 CALM 0 0 0 0 1011.9 1011.3 0.0
29/07:00am 25.8 32.6 25.5 98 0.2 CALM 0 0 0 0 1011.4 - 0.0
29/06:30am 25.8 32.2 25.5 98 0.2 W 2 7 1 4 1011.1 - 0.0
29/06:00am 25.7 32.3 25.2 97 0.3 CALM 0 0 0 0 1010.8 - 0.0
29/05:30am 25.9 32.6 25.4 97 0.4 CALM 0 0 0 0 1010.6 - 0.0
29/05:00am 26.1 32.9 25.6 97 0.4 CALM 0 0 0 0 1010.2 - 0.0
29/04:30am 26.3 32.9 25.3 94 0.7 CALM 0 0 0 0 1009.8 1009.2 0.0
29/04:00am 27.4 33.5 26.5 95 0.6 WSW 7 9 4 5 1009.4 - 0.0
29/03:30am 27.4 33.4 26.3 94 0.8 WSW 7 11 4 6 1009.4 - 0.0
29/03:00am 27.4 33.4 26.0 92 1.0 WSW 6 7 3 4 1009.5 - 0.0
29/02:30am 27.5 33.2 25.9 91 1.1 WSW 7 11 4 6 1009.6 - 0.0
29/02:00am 27.6 33.2 25.8 90 1.3 W 7 9 4 5 1009.9 - 0.0
29/01:30am 27.6 33.5 26.2 92 1.0 W 7 9 4 5 1010.0 1009.4 0.0
29/01:00am 27.5 33.0 26.1 92 1.0 WSW 9 11 5 6 1010.1 - 0.0
29/12:30am 27.5 32.8 25.9 91 1.1 WSW 9 13 5 7 1010.1 - 0.0
29/12:00am 27.6 32.9 25.8 90 1.3 WSW 9 13 5 7 1010.1 - 0.0
 
Date/Time
CST
Temp
°C
App
Temp
°C
Dew
Point
Rel
Hum
%
Delta-T
°C
Wind Press
QNH
hPa
Press
MSL
hPa
Rain
since 9 am
mm
Dir
 
Spd
km/h
Gust
km/h
Spd
kts
Gust
kts
28/11:30pm 27.7 32.5 25.7 89 1.4 W 11 13 6 7 1010.4 - 0.0
28/11:00pm 27.8 32.8 25.4 87 1.7 W 9 13 5 7 1010.6 - 0.0
28/10:30pm 27.8 32.9 25.0 85 2.0 W 7 11 4 6 1010.5 1009.9 0.0
28/10:00pm 28.0 33.0 24.8 83 2.2 W 7 9 4 5 1010.3 - 0.0
28/09:30pm 28.3 33.0 24.9 82 2.4 W 9 15 5 8 1010.3 - 0.0
28/09:00pm 28.6 33.2 24.8 80 2.7 W 9 13 5 7 1010.0 - 0.0
28/08:30pm 29.0 33.5 24.6 77 3.1 W 9 13 5 7 1009.8 - 0.0
28/08:00pm 29.3 34.5 25.1 78 3.0 W 7 11 4 6 1009.6 - 0.0
28/07:30pm 29.5 33.4 23.0 68 4.5 NW 7 9 4 5 1009.2 1008.6 0.0
28/07:00pm 30.8 34.2 22.7 62 5.5 WNW 9 13 5 7 1008.9 - 0.0
28/06:30pm 32.0 35.1 22.1 55 6.7 WNW 9 15 5 8 1008.4 - 0.0
28/06:00pm 32.7 35.8 22.8 56 6.8 WNW 11 15 6 8 1008.0 - 0.0
28/05:30pm 33.5 35.0 21.3 48 8.3 W 15 19 8 10 1008.0 - 0.0
28/05:00pm 34.1 36.1 21.5 47 8.6 NW 13 17 7 9 1007.8 - 0.0
28/04:30pm 34.6 36.6 21.6 46 8.9 NNW 13 20 7 11 1007.8 1007.2 0.0
28/04:00pm 35.0 35.2 18.6 38 10.8 W 15 20 8 11 1007.8 - 0.0
28/03:30pm 35.1 36.1 20.2 41 10.0 WNW 15 22 8 12 1008.1 - 0.0
28/03:00pm 34.8 35.3 19.2 39 10.3 NW 15 24 8 13 1008.3 - 0.0
28/02:30pm 34.8 35.8 21.1 44 9.3 WNW 17 24 9 13 1008.7 - 0.0
28/02:00pm 33.9 34.7 21.7 49 8.3 WNW 20 28 11 15 1009.2 - 0.0
28/01:30pm 33.5 33.8 20.3 46 8.8 W 19 26 10 14 1009.7 1009.1 0.0
28/01:00pm 33.6 35.4 23.6 56 7.0 W 20 26 11 14 1010.0 - 0.0
28/12:30pm 32.9 34.9 23.0 56 6.8 W 17 26 9 14 1010.5 - 0.0
28/12:00pm 32.1 33.9 22.5 57 6.6 W 17 24 9 13 1010.9 - 0.0
28/11:30am 32.5 34.4 22.0 54 7.2 SW 15 22 8 12 1011.2 - 0.0
28/11:00am 31.5 33.3 22.5 59 6.2 W 17 24 9 13 1011.4 - 0.0
28/10:30am 30.9 32.7 22.5 61 5.7 WSW 17 24 9 13 1011.6 1011.0 0.0
28/10:00am 30.2 31.6 21.8 60 5.7 W 17 24 9 13 1011.7 - 0.0
28/09:30am 30.0 32.5 23.2 67 4.7 WSW 15 20 8 11 1012.2 - 0.0
28/09:00am 29.1 32.1 23.3 71 4.0 W 13 17 7 9 1012.4 - 0.0
28/08:30am 28.5 32.6 23.2 73 3.6 WNW 7 13 4 7 1012.7 - 0.0
28/08:00am 28.2 33.8 24.2 79 2.8 N 2 7 1 4 1012.6 - 0.0
28/07:30am 26.6 31.9 24.3 87 1.6 NNE 4 6 2 3 1012.2 1011.6 0.0
28/07:00am 24.8 29.6 24.1 96 0.5 NNE 6 7 3 4 1011.8 - 0.0
28/06:30am 24.7 30.4 23.7 94 0.7 CALM 0 0 0 0 1011.6 - 0.0
28/06:00am 25.0 30.6 23.6 92 1.0 CALM 0 0 0 0 1011.4 - 0.0
28/05:30am 25.1 30.7 23.5 91 1.1 CALM 0 0 0 0 1011.2 - 0.0
28/05:00am 25.6 31.3 23.8 90 1.2 CALM 0 0 0 0 1010.8 - 0.0
28/04:30am 26.1 31.7 23.6 86 1.7 CALM 0 7 0 4 1010.5 1009.9 0.0
28/04:00am 26.9 31.4 23.6 82 2.3 SSW 6 7 3 4 1010.3 - 0.0
28/03:30am 27.3 31.1 23.5 80 2.6 W 9 13 5 7 1009.9 - 0.0
28/03:00am 27.5 30.9 23.3 78 2.9 W 11 15 6 8 1009.9 - 0.0
28/02:30am 27.6 31.0 23.4 78 2.9 W 11 15 6 8 1009.9 - 0.0
28/02:00am 27.6 30.9 23.2 77 3.0 W 11 17 6 9 1010.2 - 0.0
28/01:30am 27.6 31.0 23.4 78 2.9 W 11 19 6 10 1010.3 1009.7 0.0

Other Formats:

Comma delimited format used in spreadsheet applications
http://www.bom.gov.au/fwo/IDD60801/IDD60801.95101.axf

JavaScript Object Notation format (JSON) in row-major order
http://www.bom.gov.au/fwo/IDD60801/IDD60801.95101.json